createdAt,value
2019-01-31T00:02:31.380Z,0
2019-01-31T00:05:37.250Z,0
2019-01-31T00:08:49.133Z,0
2019-01-31T00:11:55.093Z,0
2019-01-31T00:15:00.966Z,0
2019-01-31T00:18:07.012Z,0
2019-01-31T00:21:12.886Z,0
2019-01-31T00:24:18.841Z,0
2019-01-31T00:27:24.787Z,0
2019-01-31T00:30:30.697Z,0
2019-01-31T00:33:36.790Z,0
2019-01-31T00:36:42.663Z,0
2019-01-31T00:39:48.625Z,0
2019-01-31T00:42:54.587Z,0
2019-01-31T00:46:00.466Z,0
2019-01-31T00:49:06.405Z,0
2019-01-31T00:52:12.281Z,0
2019-01-31T00:55:18.223Z,0
2019-01-31T00:58:24.099Z,0
2019-01-31T01:01:30.139Z,0
2019-01-31T01:04:36.020Z,0
2019-01-31T01:07:41.955Z,0
2019-01-31T01:10:47.940Z,0
2019-01-31T01:13:53.873Z,0
2019-01-31T01:16:59.919Z,0
2019-01-31T01:20:06.014Z,0
2019-01-31T01:23:11.995Z,0
2019-01-31T01:26:17.917Z,0
2019-01-31T01:29:23.886Z,0
2019-01-31T01:32:30.039Z,0
2019-01-31T01:35:35.913Z,0
2019-01-31T01:38:41.859Z,0
2019-01-31T01:41:47.818Z,0
2019-01-31T01:44:53.693Z,0
2019-01-31T01:47:59.829Z,0
2019-01-31T01:51:05.838Z,0
2019-01-31T01:54:11.692Z,0
2019-01-31T01:57:17.818Z,0
2019-01-31T02:00:23.781Z,0
2019-01-31T02:03:29.757Z,0
2019-01-31T02:06:36.015Z,0
2019-01-31T02:09:41.881Z,0
2019-01-31T02:12:47.821Z,0
2019-01-31T02:15:53.779Z,0
2019-01-31T02:18:59.740Z,0
2019-01-31T02:22:05.700Z,0
2019-01-31T02:25:11.573Z,0
2019-01-31T02:28:17.517Z,0
2019-01-31T02:31:23.389Z,0
2019-01-31T02:34:29.455Z,0
2019-01-31T02:37:35.517Z,0
2019-01-31T02:40:41.464Z,0
2019-01-31T02:43:47.449Z,0
2019-01-31T02:46:53.480Z,0
2019-01-31T02:49:59.435Z,0
2019-01-31T02:53:08.123Z,0
2019-01-31T02:56:14.423Z,0
2019-01-31T02:59:20.383Z,0
2019-01-31T03:02:26.347Z,0
2019-01-31T03:05:32.302Z,0
2019-01-31T03:08:38.372Z,0
2019-01-31T03:11:44.243Z,0
2019-01-31T03:14:50.286Z,0
2019-01-31T03:17:56.344Z,0
2019-01-31T03:21:02.405Z,0
2019-01-31T03:24:08.366Z,0
2019-01-31T03:27:14.370Z,0
2019-01-31T03:30:25.430Z,0
2019-01-31T03:33:31.364Z,0
2019-01-31T03:36:37.328Z,0
2019-01-31T03:39:43.285Z,0
2019-01-31T03:42:49.245Z,0
2019-01-31T03:45:55.203Z,1.1
2019-01-31T03:49:01.223Z,195.8
2019-01-31T03:52:07.227Z,240.5
2019-01-31T03:55:13.194Z,249.1
2019-01-31T03:58:19.245Z,252
2019-01-31T04:01:25.210Z,253.4
2019-01-31T04:04:31.160Z,252
2019-01-31T04:07:37.100Z,252
2019-01-31T04:10:43.095Z,252
2019-01-31T04:13:49.044Z,252
2019-01-31T04:16:54.922Z,252
2019-01-31T04:20:00.865Z,252
2019-01-31T04:23:06.823Z,252
2019-01-31T04:26:12.875Z,253.4
2019-01-31T04:29:18.834Z,253.4
2019-01-31T04:32:24.897Z,253.4
2019-01-31T04:35:30.940Z,253.4
2019-01-31T04:38:36.920Z,253.4
2019-01-31T04:41:42.985Z,253.4
2019-01-31T04:44:49.050Z,253.4
2019-01-31T04:47:58.282Z,253.4
2019-01-31T04:51:04.152Z,252
2019-01-31T04:54:10.097Z,253.4
2019-01-31T04:57:16.062Z,252
2019-01-31T05:00:21.929Z,253.4
2019-01-31T05:03:27.879Z,253.4
2019-01-31T05:06:33.816Z,252
2019-01-31T05:09:39.792Z,252
2019-01-31T05:12:45.771Z,252
2019-01-31T05:15:51.962Z,252
2019-01-31T05:18:57.989Z,252
2019-01-31T05:22:03.936Z,252
2019-01-31T05:25:09.899Z,253.4
2019-01-31T05:28:15.857Z,252
2019-01-31T05:31:24.733Z,252
2019-01-31T05:34:30.729Z,252
2019-01-31T05:37:36.794Z,252
2019-01-31T05:40:54.266Z,250.6
2019-01-31T05:44:01.389Z,254.9
2019-01-31T05:47:07.446Z,253.4
2019-01-31T05:50:13.568Z,254.9
2019-01-31T05:53:19.507Z,254.9
2019-01-31T05:56:25.674Z,254.9
2019-01-31T05:59:31.742Z,254.9
2019-01-31T06:02:37.701Z,254.9
2019-01-31T06:05:43.661Z,254.9
2019-01-31T06:08:49.874Z,253.4
2019-01-31T06:11:55.881Z,257.8
2019-01-31T06:15:01.813Z,262.1
2019-01-31T06:18:07.864Z,265
2019-01-31T06:21:13.720Z,262.1
2019-01-31T06:24:19.915Z,262.1
2019-01-31T06:27:25.985Z,262.1
2019-01-31T06:30:32.052Z,263.5
2019-01-31T06:33:37.919Z,260.6
2019-01-31T06:36:43.993Z,1077.1
2019-01-31T06:39:49.922Z,253.4
2019-01-31T06:42:55.852Z,260.6
2019-01-31T06:46:01.841Z,262.1
2019-01-31T06:49:08.879Z,263.5
2019-01-31T06:52:14.794Z,267.8
2019-01-31T06:55:20.747Z,269.3
2019-01-31T06:58:26.807Z,269.3
2019-01-31T07:01:32.772Z,266.4
2019-01-31T07:04:38.727Z,267.8
2019-01-31T07:07:44.682Z,269.3
2019-01-31T07:10:50.655Z,243.4
2019-01-31T07:13:56.603Z,262.1
2019-01-31T07:17:02.528Z,267.8
2019-01-31T07:20:08.520Z,285.1
2019-01-31T07:23:15.430Z,263.5
2019-01-31T07:26:21.368Z,273.6
2019-01-31T07:29:27.406Z,269.3
2019-01-31T07:32:33.486Z,269.3
2019-01-31T07:35:39.564Z,275
2019-01-31T07:38:45.503Z,269.3
2019-01-31T07:41:51.380Z,273.6
2019-01-31T07:44:57.443Z,277.9
2019-01-31T07:48:03.993Z,277.9
2019-01-31T07:51:09.958Z,279.4
2019-01-31T07:54:16.259Z,280.8
2019-01-31T07:57:23.781Z,156.2
2019-01-31T08:00:29.683Z,288
2019-01-31T08:03:35.938Z,279.4
2019-01-31T08:06:45.176Z,275
2019-01-31T08:09:51.568Z,275
2019-01-31T08:13:00.295Z,272.2
2019-01-31T08:16:06.366Z,270.7
2019-01-31T08:19:12.633Z,276.5
2019-01-31T08:22:18.573Z,276.5
2019-01-31T08:25:24.720Z,276.5
2019-01-31T08:28:30.803Z,276.5
2019-01-31T08:31:36.883Z,276.5
2019-01-31T08:34:45.565Z,280.8
2019-01-31T08:37:51.523Z,276.5
2019-01-31T08:40:57.697Z,276.5
2019-01-31T08:44:03.762Z,273.6
2019-01-31T08:47:10.026Z,272.2
2019-01-31T08:50:16.094Z,270.7
2019-01-31T08:53:22.743Z,269.3
2019-01-31T08:56:29.075Z,272.2
2019-01-31T08:59:35.822Z,270.7
2019-01-31T09:02:42.408Z,272.2
2019-01-31T09:05:48.573Z,273.6
2019-01-31T09:08:54.745Z,273.6
2019-01-31T09:12:00.863Z,273.6
2019-01-31T09:15:18.560Z,273.6
2019-01-31T09:18:27.365Z,270.7
2019-01-31T09:21:33.194Z,269.3
2019-01-31T09:24:42.163Z,269.3
2019-01-31T09:27:48.022Z,269.3
2019-01-31T09:30:54.063Z,267.8
2019-01-31T09:33:59.995Z,267.8
2019-01-31T09:37:06.093Z,265
2019-01-31T09:40:12.081Z,265
2019-01-31T09:43:17.989Z,265
2019-01-31T09:46:23.968Z,263.5
2019-01-31T09:49:30.029Z,266.4
2019-01-31T09:52:36.177Z,269.3
2019-01-31T09:55:42.154Z,272.2
2019-01-31T09:58:48.029Z,273.6
2019-01-31T10:01:55.625Z,275
2019-01-31T10:05:01.677Z,273.6
2019-01-31T10:08:07.734Z,276.5
2019-01-31T10:11:13.847Z,275
2019-01-31T10:14:20.106Z,275
2019-01-31T10:17:26.380Z,277.9
2019-01-31T10:20:32.546Z,277.9
2019-01-31T10:23:38.943Z,279.4
2019-01-31T10:26:44.942Z,279.4
2019-01-31T10:29:53.692Z,279.4
2019-01-31T10:32:59.718Z,280.8
2019-01-31T10:36:08.829Z,280.8
2019-01-31T10:39:14.913Z,277.9
2019-01-31T10:42:20.873Z,279.4
2019-01-31T10:45:27.671Z,276.5
2019-01-31T10:48:33.693Z,276.5
2019-01-31T10:51:40.810Z,273.6
2019-01-31T10:54:46.704Z,273.6
2019-01-31T10:57:53.017Z,272.2
2019-01-31T11:00:58.996Z,270.7
2019-01-31T11:04:05.095Z,257.8
2019-01-31T11:07:11.141Z,270.7
2019-01-31T11:10:17.014Z,270.7
2019-01-31T11:13:23.027Z,269.3
2019-01-31T11:16:29.112Z,269.3
2019-01-31T11:19:35.166Z,269.3
2019-01-31T11:22:41.225Z,269.3
2019-01-31T11:25:47.285Z,269.3
2019-01-31T11:28:53.167Z,270.7
2019-01-31T11:32:01.146Z,269.3
2019-01-31T11:35:07.255Z,270.7
2019-01-31T11:38:13.276Z,270.7
2019-01-31T11:41:19.166Z,270.7
2019-01-31T11:44:27.129Z,270.7
2019-01-31T11:47:33.383Z,270.7
2019-01-31T11:50:39.439Z,272.2
2019-01-31T11:53:45.536Z,272.2
2019-01-31T11:56:51.440Z,272.2
2019-01-31T12:00:08.831Z,270.7
2019-01-31T12:03:15.799Z,270.7
2019-01-31T12:06:21.862Z,266.4
2019-01-31T12:09:27.819Z,267.8
2019-01-31T12:12:33.757Z,270.7
2019-01-31T12:15:40.034Z,272.2
2019-01-31T12:18:45.998Z,270.7
2019-01-31T12:21:52.066Z,272.2
2019-01-31T12:24:58.335Z,270.7
2019-01-31T12:28:04.658Z,270.7
2019-01-31T12:31:10.774Z,270.7
2019-01-31T12:34:18.076Z,270.7
2019-01-31T12:37:24.328Z,269.3
2019-01-31T12:40:30.277Z,269.3
2019-01-31T12:43:38.393Z,269.3
2019-01-31T12:46:44.458Z,269.3
2019-01-31T12:49:50.394Z,269.3
2019-01-31T12:52:56.478Z,267.8
2019-01-31T12:56:02.524Z,266.4
2019-01-31T12:59:08.497Z,262.1
2019-01-31T13:02:14.573Z,269.3
2019-01-31T13:05:20.433Z,269.3
2019-01-31T13:08:26.493Z,269.3
2019-01-31T13:11:32.408Z,269.3
2019-01-31T13:14:38.386Z,270.7
2019-01-31T13:17:44.518Z,270.7
2019-01-31T13:20:50.386Z,270.7
2019-01-31T13:23:56.367Z,270.7
2019-01-31T13:27:02.459Z,270.7
2019-01-31T13:30:08.692Z,269.3
2019-01-31T13:33:14.776Z,267.8
2019-01-31T13:36:20.824Z,266.4
2019-01-31T13:39:26.777Z,266.4
2019-01-31T13:42:32.738Z,266.4
2019-01-31T13:45:39.015Z,265
2019-01-31T13:48:45.264Z,265
2019-01-31T13:51:51.156Z,265
2019-01-31T13:54:57.462Z,265
2019-01-31T13:58:03.595Z,265
2019-01-31T14:01:09.520Z,265
2019-01-31T14:04:15.482Z,263.5
2019-01-31T14:07:22.801Z,265
2019-01-31T14:10:31.793Z,265
2019-01-31T14:13:38.065Z,265
2019-01-31T14:16:50.793Z,265
2019-01-31T14:19:56.963Z,263.5
2019-01-31T14:23:03.026Z,263.5
2019-01-31T14:26:09.126Z,265
2019-01-31T14:29:15.148Z,263.5
2019-01-31T14:32:21.318Z,265
2019-01-31T14:35:27.267Z,263.5
2019-01-31T14:38:33.271Z,263.5
2019-01-31T14:41:39.157Z,263.5
2019-01-31T14:44:45.138Z,263.5
2019-01-31T14:47:51.020Z,263.5
2019-01-31T14:51:00.029Z,236.2
2019-01-31T14:54:06.087Z,259.2
2019-01-31T14:57:12.064Z,244.8
2019-01-31T15:00:18.091Z,241.9
2019-01-31T15:03:24.069Z,241.9
2019-01-31T15:06:30.110Z,233.3
2019-01-31T15:09:36.252Z,256.3
2019-01-31T15:12:42.165Z,256.3
2019-01-31T15:15:48.215Z,256.3
2019-01-31T15:18:55.110Z,257.8
2019-01-31T15:22:01.157Z,253.4
2019-01-31T15:25:07.279Z,249.1
2019-01-31T15:28:13.280Z,259.2
2019-01-31T15:31:19.240Z,259.2
2019-01-31T15:34:25.284Z,259.2
2019-01-31T15:37:31.456Z,259.2
2019-01-31T15:40:37.434Z,257.8
2019-01-31T15:43:43.313Z,257.8
2019-01-31T15:46:49.241Z,256.3
2019-01-31T15:49:55.304Z,250.6
2019-01-31T15:53:01.369Z,227.5
2019-01-31T15:56:09.895Z,252
2019-01-31T15:59:15.856Z,252
2019-01-31T16:02:21.938Z,243.4
2019-01-31T16:05:27.977Z,243.4
2019-01-31T16:08:33.844Z,221.8
2019-01-31T16:11:40.151Z,243.4
2019-01-31T16:14:57.928Z,240.5
2019-01-31T16:18:04.082Z,244.8
2019-01-31T16:21:10.055Z,244.8
2019-01-31T16:24:16.015Z,241.9
2019-01-31T16:27:24.684Z,231.8
2019-01-31T16:30:30.594Z,244.8
2019-01-31T16:33:36.563Z,247.7
2019-01-31T16:36:42.513Z,246.2
2019-01-31T16:39:48.390Z,246.2
2019-01-31T16:42:54.265Z,247.7
2019-01-31T16:46:00.158Z,249.1
2019-01-31T16:49:06.264Z,247.7
2019-01-31T16:52:15.340Z,247.7
2019-01-31T16:55:21.342Z,244.8
2019-01-31T16:58:27.354Z,249.1
2019-01-31T17:01:33.322Z,250.6
2019-01-31T17:04:39.337Z,250.6
2019-01-31T17:07:45.287Z,250.6
2019-01-31T17:10:51.245Z,250.6
2019-01-31T17:13:57.124Z,250.6
2019-01-31T17:17:03.058Z,250.6
2019-01-31T17:20:09.021Z,249.1
2019-01-31T17:23:14.903Z,250.6
2019-01-31T17:26:21.169Z,250.6
2019-01-31T17:29:27.218Z,250.6
2019-01-31T17:32:33.278Z,250.6
2019-01-31T17:35:39.140Z,252
2019-01-31T17:38:45.236Z,253.4
2019-01-31T17:41:51.253Z,253.4
2019-01-31T17:44:57.308Z,252
2019-01-31T17:48:03.190Z,253.4
2019-01-31T17:51:09.125Z,252
2019-01-31T17:54:15.174Z,253.4
2019-01-31T17:57:21.538Z,253.4
2019-01-31T18:00:27.619Z,252
2019-01-31T18:03:33.761Z,253.4
2019-01-31T18:06:39.741Z,253.4
2019-01-31T18:09:45.624Z,253.4
2019-01-31T18:12:51.562Z,253.4
2019-01-31T18:15:57.517Z,253.4
2019-01-31T18:19:03.398Z,253.4
2019-01-31T18:22:09.441Z,253.4
2019-01-31T18:25:15.311Z,254.9
2019-01-31T18:28:21.357Z,252
2019-01-31T18:31:27.238Z,252
2019-01-31T18:34:33.173Z,250.6
2019-01-31T18:37:39.133Z,252
2019-01-31T18:40:45.021Z,252
2019-01-31T18:43:51.049Z,250.6
2019-01-31T18:46:56.938Z,252
2019-01-31T18:50:02.873Z,252
2019-01-31T18:53:08.828Z,252
2019-01-31T18:56:14.991Z,250.6
2019-01-31T18:59:20.874Z,252
2019-01-31T19:02:27.000Z,252
2019-01-31T19:05:32.977Z,252
2019-01-31T19:08:38.951Z,252
2019-01-31T19:11:44.985Z,252
2019-01-31T19:14:50.869Z,252
2019-01-31T19:18:08.951Z,252
2019-01-31T19:21:14.959Z,252
2019-01-31T19:24:21.001Z,252
2019-01-31T19:27:27.078Z,252
2019-01-31T19:30:33.157Z,253.4
2019-01-31T19:33:39.028Z,253.4
2019-01-31T19:36:45.076Z,253.4
2019-01-31T19:39:51.221Z,253.4
2019-01-31T19:42:57.187Z,252
2019-01-31T19:46:03.197Z,253.4
2019-01-31T19:49:21.098Z,253.4
2019-01-31T19:52:27.059Z,253.4
2019-01-31T19:55:32.927Z,253.4
2019-01-31T19:58:38.986Z,253.4
2019-01-31T20:01:45.035Z,253.4
2019-01-31T20:04:50.907Z,253.4
2019-01-31T20:07:56.854Z,253.4
2019-01-31T20:11:02.918Z,253.4
2019-01-31T20:14:09.273Z,253.4
2019-01-31T20:17:15.326Z,253.4
2019-01-31T20:20:21.206Z,253.4
2019-01-31T20:23:27.166Z,253.4
2019-01-31T20:26:33.140Z,253.4
2019-01-31T20:29:39.200Z,253.4
2019-01-31T20:32:45.140Z,253.4
2019-01-31T20:35:51.208Z,254.9
2019-01-31T20:39:00.031Z,253.4
2019-01-31T20:42:05.998Z,253.4
2019-01-31T20:45:11.933Z,253.4
2019-01-31T20:48:18.013Z,254.9
2019-01-31T20:51:23.967Z,254.9
2019-01-31T20:54:29.939Z,254.9
2019-01-31T20:57:35.856Z,253.4
2019-01-31T21:00:41.860Z,253.4
2019-01-31T21:03:50.767Z,253.4
2019-01-31T21:06:56.735Z,253.4
2019-01-31T21:10:03.008Z,253.4
2019-01-31T21:13:08.963Z,252
2019-01-31T21:16:14.908Z,250.6
2019-01-31T21:19:20.989Z,250.6
2019-01-31T21:22:26.893Z,250.6
2019-01-31T21:25:36.186Z,250.6
2019-01-31T21:28:42.146Z,252
2019-01-31T21:31:48.105Z,252
2019-01-31T21:34:53.974Z,250.6
2019-01-31T21:38:02.729Z,252
2019-01-31T21:41:08.743Z,250.6
2019-01-31T21:44:14.940Z,250.6
2019-01-31T21:47:20.875Z,250.6
2019-01-31T21:50:26.835Z,0
2019-01-31T21:53:32.713Z,0
2019-01-31T21:56:41.414Z,0
2019-01-31T21:59:47.373Z,0
2019-01-31T22:02:53.332Z,0
2019-01-31T22:05:59.292Z,0
2019-01-31T22:09:05.350Z,0
2019-01-31T22:12:11.370Z,0
2019-01-31T22:15:17.261Z,0
2019-01-31T22:18:23.286Z,0
2019-01-31T22:21:29.194Z,0
2019-01-31T22:24:35.072Z,0
2019-01-31T22:27:43.978Z,0
2019-01-31T22:30:49.938Z,0
2019-01-31T22:33:55.901Z,0
2019-01-31T22:37:01.859Z,0
2019-01-31T22:40:07.923Z,0
2019-01-31T22:43:14.096Z,0
2019-01-31T22:46:23.116Z,0
2019-01-31T22:49:29.086Z,0
2019-01-31T22:52:35.137Z,0
2019-01-31T22:55:41.096Z,0
2019-01-31T22:58:47.158Z,0
2019-01-31T23:01:53.031Z,0
2019-01-31T23:04:59.007Z,0
2019-01-31T23:08:05.039Z,0
2019-01-31T23:11:10.996Z,0
2019-01-31T23:14:17.261Z,0
2019-01-31T23:17:23.268Z,0
2019-01-31T23:20:40.548Z,0
2019-01-31T23:23:49.989Z,0
2019-01-31T23:26:56.262Z,0
2019-01-31T23:30:02.219Z,0
2019-01-31T23:33:08.173Z,0
2019-01-31T23:36:14.241Z,0
2019-01-31T23:39:20.115Z,0
2019-01-31T23:42:26.165Z,0
2019-01-31T23:45:32.036Z,0
2019-01-31T23:48:37.976Z,0
2019-01-31T23:51:43.854Z,0
2019-01-31T23:54:49.895Z,0
2019-01-31T23:57:55.960Z,0
